createdAt,value
2018-12-31T13:59:56.280Z,3.63
2018-12-31T14:58:39.653Z,71.70
2018-12-31T15:01:09.516Z,6.03
2018-12-31T15:03:40.042Z,2.73
2018-12-31T15:06:09.614Z,3.20
2018-12-31T15:08:39.494Z,2.30
2018-12-31T15:11:09.894Z,3.13
2018-12-31T15:13:39.518Z,2.10
2018-12-31T15:16:09.328Z,2.83
2018-12-31T15:18:38.998Z,3.97
2018-12-31T15:21:09.598Z,2.67
2018-12-31T15:23:39.224Z,3.10
2018-12-31T15:26:08.865Z,3.23
2018-12-31T15:28:38.836Z,5.33
2018-12-31T15:31:08.609Z,6.10
2018-12-31T15:33:38.201Z,3.47
2018-12-31T15:36:08.062Z,3.23
2018-12-31T15:38:38.118Z,3.10
2018-12-31T15:41:08.139Z,3.27
2018-12-31T15:43:37.730Z,3.47
2018-12-31T15:46:07.481Z,3.73
2018-12-31T15:48:37.069Z,3.90
2018-12-31T15:51:06.785Z,3.10
2018-12-31T15:53:36.370Z,3.80
2018-12-31T15:56:06.259Z,4.23
2018-12-31T15:58:35.881Z,3.73
2018-12-31T16:01:05.460Z,5.50
2018-12-31T16:03:35.094Z,4.60
2018-12-31T16:06:05.017Z,4.20
2018-12-31T16:08:34.593Z,4.07
2018-12-31T16:11:04.222Z,4.40
2018-12-31T16:13:34.097Z,4.83
2018-12-31T16:16:03.686Z,3.90
2018-12-31T16:18:34.435Z,4.50
2018-12-31T16:21:05.788Z,3.87
2018-12-31T16:23:37.215Z,6.77
2018-12-31T16:26:06.989Z,4.67
2018-12-31T16:28:36.930Z,4.50
2018-12-31T16:31:06.640Z,4.83
2018-12-31T16:33:36.224Z,4.20
2018-12-31T16:36:05.801Z,5.67
2018-12-31T16:38:35.578Z,4.80
2018-12-31T16:41:05.162Z,4.33
2018-12-31T16:43:34.738Z,4.47
2018-12-31T16:46:04.665Z,4.43
2018-12-31T16:48:34.647Z,5.30
2018-12-31T16:51:04.534Z,5.57
2018-12-31T16:53:34.113Z,4.77
2018-12-31T16:56:03.734Z,5.87
2018-12-31T16:58:33.493Z,7.47
2018-12-31T17:01:03.338Z,6.03
2018-12-31T17:03:33.106Z,4.93
2018-12-31T17:06:03.770Z,3.73
2018-12-31T17:08:33.621Z,5.10
2018-12-31T17:11:03.184Z,4.67
2018-12-31T17:13:32.966Z,5.47
2018-12-31T17:16:02.821Z,4.13
2018-12-31T17:18:32.661Z,4.57
2018-12-31T17:21:02.307Z,4.93
2018-12-31T17:23:31.886Z,4.70
2018-12-31T17:26:01.474Z,4.33
2018-12-31T17:28:31.597Z,5.47
2018-12-31T17:31:01.301Z,5.20
2018-12-31T17:33:30.881Z,4.53
2018-12-31T17:36:00.470Z,6.07
2018-12-31T17:38:30.166Z,4.50
2018-12-31T17:41:00.139Z,4.27
2018-12-31T17:43:29.832Z,4.10
2018-12-31T17:45:59.457Z,4.70
2018-12-31T17:48:29.073Z,4.90
2018-12-31T17:50:59.158Z,6.17
2018-12-31T17:53:28.765Z,4.30
2018-12-31T17:55:58.373Z,4.43
2018-12-31T17:58:27.989Z,4.37
2018-12-31T18:00:57.574Z,4.37
2018-12-31T18:03:27.188Z,3.33
2018-12-31T18:05:56.761Z,4.73
2018-12-31T18:08:26.366Z,3.50
2018-12-31T18:10:56.314Z,6.23
2018-12-31T18:13:25.898Z,4.13
2018-12-31T18:15:55.477Z,2.83
2018-12-31T18:18:25.255Z,4.07
2018-12-31T18:20:54.836Z,3.23
2018-12-31T18:23:24.425Z,6.47
2018-12-31T18:25:54.277Z,4.50
2018-12-31T18:28:24.033Z,5.03
2018-12-31T18:30:53.737Z,4.00
2018-12-31T18:33:23.650Z,4.37
2018-12-31T18:35:53.951Z,4.60
2018-12-31T18:38:23.520Z,4.57
2018-12-31T18:40:53.484Z,4.00
2018-12-31T18:43:23.754Z,4.63
2018-12-31T18:45:53.337Z,4.37
2018-12-31T18:48:23.164Z,8.90
2018-12-31T18:50:52.741Z,6.10
2018-12-31T18:53:22.374Z,7.97
2018-12-31T18:55:51.958Z,19.63
2018-12-31T18:58:21.573Z,13.40
2018-12-31T19:00:51.361Z,12.50
2018-12-31T19:03:20.948Z,12.07
2018-12-31T19:05:50.533Z,12.53
2018-12-31T19:08:20.309Z,11.73
2018-12-31T19:10:49.903Z,7.17
2018-12-31T19:13:19.485Z,7.30
2018-12-31T19:15:49.262Z,8.07
2018-12-31T19:18:18.840Z,9.57
2018-12-31T19:20:48.865Z,8.43
2018-12-31T19:23:18.722Z,8.50
2018-12-31T19:25:48.302Z,8.23
2018-12-31T19:28:18.058Z,6.93
2018-12-31T19:30:47.818Z,7.87
2018-12-31T19:33:17.393Z,7.53
2018-12-31T19:35:47.258Z,8.27
2018-12-31T19:38:16.937Z,11.23
2018-12-31T19:40:46.533Z,10.07
2018-12-31T19:43:16.118Z,10.23
2018-12-31T19:45:45.762Z,11.20
2018-12-31T19:48:15.345Z,9.57
2018-12-31T19:50:44.983Z,10.83
2018-12-31T19:53:15.253Z,8.23
2018-12-31T19:55:44.828Z,7.50
2018-12-31T19:58:14.514Z,7.03
2018-12-31T20:00:44.300Z,9.83
2018-12-31T20:03:13.869Z,8.20
2018-12-31T20:05:43.717Z,7.43
2018-12-31T20:08:13.463Z,8.30
2018-12-31T20:10:43.039Z,8.13
2018-12-31T20:13:12.623Z,9.80
2018-12-31T20:15:48.586Z,8.73
2018-12-31T20:18:14.939Z,8.43
2018-12-31T20:20:44.531Z,7.73
2018-12-31T20:23:14.235Z,7.13
2018-12-31T20:25:43.817Z,7.07
2018-12-31T20:28:13.618Z,6.90
2018-12-31T20:30:43.470Z,8.33
2018-12-31T20:33:13.055Z,7.90
2018-12-31T20:35:42.774Z,8.20
2018-12-31T20:38:12.436Z,7.00
2018-12-31T20:40:42.018Z,7.30
2018-12-31T20:43:11.951Z,9.37
2018-12-31T20:45:41.677Z,9.00
2018-12-31T20:48:11.293Z,9.93
2018-12-31T20:50:40.877Z,9.30
2018-12-31T20:53:10.640Z,9.67
2018-12-31T20:55:40.225Z,12.07
2018-12-31T20:58:09.801Z,9.20
2018-12-31T21:00:39.754Z,10.43
2018-12-31T21:03:09.328Z,8.17
2018-12-31T21:05:39.029Z,9.70
2018-12-31T21:08:08.653Z,9.50
2018-12-31T21:10:38.234Z,9.30
2018-12-31T21:13:07.817Z,8.33
2018-12-31T21:15:37.465Z,9.43
2018-12-31T21:18:07.063Z,12.00
2018-12-31T21:20:36.754Z,10.00
2018-12-31T21:23:06.482Z,12.20
2018-12-31T21:25:36.108Z,11.67
2018-12-31T21:28:06.485Z,9.50
2018-12-31T21:30:36.362Z,9.67
2018-12-31T21:33:06.314Z,10.67
2018-12-31T21:35:35.930Z,9.73
2018-12-31T21:38:05.526Z,14.67
2018-12-31T21:40:35.144Z,22.03
2018-12-31T21:43:04.759Z,18.53
2018-12-31T21:45:34.355Z,19.60
2018-12-31T21:48:04.264Z,15.83
2018-12-31T21:50:33.899Z,17.13
2018-12-31T21:53:03.494Z,13.80
2018-12-31T21:55:33.118Z,11.17
2018-12-31T21:58:03.026Z,12.10
2018-12-31T22:00:32.625Z,11.13
2018-12-31T22:03:02.269Z,9.13
2018-12-31T22:05:31.971Z,9.53
2018-12-31T22:08:01.589Z,10.43
2018-12-31T22:10:31.173Z,12.17
2018-12-31T22:13:00.766Z,14.67
2018-12-31T22:15:30.542Z,16.23
2018-12-31T22:18:00.361Z,21.40
2018-12-31T22:20:29.959Z,16.30
2018-12-31T22:22:59.549Z,14.23
2018-12-31T22:25:29.611Z,13.63
2018-12-31T22:27:59.220Z,13.27
2018-12-31T22:30:28.818Z,9.03
2018-12-31T22:32:58.493Z,8.97
2018-12-31T22:35:28.119Z,10.67
2018-12-31T22:37:57.714Z,9.97
2018-12-31T22:40:27.334Z,9.77
2018-12-31T22:42:56.985Z,11.93
2018-12-31T22:45:26.776Z,8.73
2018-12-31T22:47:56.806Z,9.33
2018-12-31T22:50:26.427Z,9.70
2018-12-31T22:52:56.014Z,11.07
2018-12-31T22:55:25.640Z,10.40
2018-12-31T22:57:55.299Z,10.57
2018-12-31T23:00:27.169Z,11.47
2018-12-31T23:02:56.797Z,11.77
2018-12-31T23:05:27.562Z,12.10
2018-12-31T23:07:57.181Z,14.60
2018-12-31T23:10:26.812Z,18.53
2018-12-31T23:12:56.433Z,18.73
2018-12-31T23:15:26.912Z,27.63
2018-12-31T23:17:56.586Z,30.40
2018-12-31T23:20:26.204Z,90.03
2018-12-31T23:22:55.853Z,72.83
2018-12-31T23:25:25.527Z,87.17
2018-12-31T23:27:55.917Z,83.70
2018-12-31T23:30:25.513Z,129.37
2018-12-31T23:32:55.320Z,134.97
2018-12-31T23:35:24.934Z,146.33
2018-12-31T23:37:54.533Z,142.03
2018-12-31T23:40:24.498Z,126.23
2018-12-31T23:42:54.097Z,128.17
2018-12-31T23:45:23.706Z,131.13
2018-12-31T23:47:53.782Z,119.20
2018-12-31T23:50:23.435Z,125.10
2018-12-31T23:52:53.111Z,129.47
2018-12-31T23:55:23.000Z,130.87
2018-12-31T23:57:54.123Z,73.07
